Time;durP1;ratioP1;P1;durP2;ratioP2;P2;SDS_P1;SDS_P2;PMS_P1;PMS_P2;Temp;Humidity;BMP_temperature;BMP_pressure;BME280_temperature;BME280_humidity;BME280_pressure;Samples;Min_cycle;Max_cycle;Signal;HPM_P1;HPM_P2
2023/03/31 00:00:45;;;;;;;19.33;4.80;;;;;;;;;;5049478;28;20048;-62
2023/03/31 00:03:11;;;;;;;22.77;4.37;;;;;;;;;;5049756;28;20072;-62
2023/03/31 00:05:37;;;;;;;27.83;6.07;;;;;;;;;;5049126;28;20111;-60
2023/03/31 00:08:03;;;;;;;23.33;4.43;;;;;;;;;;5048738;28;20164;-61
2023/03/31 00:10:33;;;;;;;30.97;6.30;;;;;;;;;;5049634;28;21090;-60
2023/03/31 00:13:02;;;;;;;33.47;5.33;;;;;;;;;;5048487;28;20041;-60
2023/03/31 00:15:29;;;;;;;21.80;4.83;;;;;;;;;;5049566;28;20156;-61
2023/03/31 00:17:59;;;;;;;23.93;3.70;;;;;;;;;;5049053;28;20119;-61
2023/03/31 00:20:25;;;;;;;26.53;4.00;;;;;;;;;;5048362;28;20047;-61
2023/03/31 00:22:53;;;;;;;29.13;5.97;;;;;;;;;;5048888;28;20076;-61
2023/03/31 00:25:19;;;;;;;24.17;4.87;;;;;;;;;;5049560;28;20052;-61
2023/03/31 00:27:49;;;;;;;15.80;3.43;;;;;;;;;;5048929;28;20053;-61
2023/03/31 00:30:15;;;;;;;22.67;3.90;;;;;;;;;;5048560;28;20056;-60
2023/03/31 00:32:41;;;;;;;28.83;5.00;;;;;;;;;;5049501;28;20041;-61
2023/03/31 00:35:07;;;;;;;23.97;5.00;;;;;;;;;;5049233;28;20053;-61
2023/03/31 00:37:34;;;;;;;16.70;4.30;;;;;;;;;;5048217;28;20053;-61
2023/03/31 00:40:00;;;;;;;23.47;5.80;;;;;;;;;;5049606;28;20041;-62
2023/03/31 00:42:26;;;;;;;29.53;5.50;;;;;;;;;;5048967;28;20037;-61
2023/03/31 00:45:11;;;;;;;25.90;4.60;;;;;;;;;;5048028;28;20390;-61
2023/03/31 00:47:37;;;;;;;22.23;4.63;;;;;;;;;;5048682;28;20084;-60
2023/03/31 00:50:04;;;;;;;18.87;4.20;;;;;;;;;;5048980;28;20525;-61
2023/03/31 00:52:36;;;;;;;30.00;6.17;;;;;;;;;;5049205;28;20156;-61
2023/03/31 00:55:08;;;;;;;20.33;4.00;;;;;;;;;;5049348;28;20049;-61
2023/03/31 00:57:38;;;;;;;28.37;6.60;;;;;;;;;;5047300;28;20507;-61
2023/03/31 01:00:13;;;;;;;24.47;4.23;;;;;;;;;;5048916;28;20554;-60
2023/03/31 01:02:40;;;;;;;29.83;4.83;;;;;;;;;;5048504;28;20057;-62
2023/03/31 01:05:07;;;;;;;25.73;4.80;;;;;;;;;;5049086;28;20072;-61
2023/03/31 01:07:40;;;;;;;32.73;5.30;;;;;;;;;;5048507;28;20434;-61
2023/03/31 01:10:07;;;;;;;;;;;;;;;;;;5048467;28;20387;-61
2023/03/31 01:12:36;;;;;;;30.03;4.80;;;;;;;;;;5048904;28;19927;-61
2023/03/31 01:15:03;;;;;;;25.40;5.07;;;;;;;;;;5048797;28;20052;-61
2023/03/31 01:17:29;;;;;;;31.60;4.73;;;;;;;;;;5048350;28;20033;-61
2023/03/31 01:20:12;;;;;;;26.00;5.20;;;;;;;;;;5047530;28;20048;-61
2023/03/31 01:22:44;;;;;;;21.08;5.18;;;;;;;;;;5048126;28;20114;-61
2023/03/31 01:25:29;;;;;;;25.67;4.90;;;;;;;;;;5051897;28;20533;-61
2023/03/31 01:27:58;;;;;;;32.67;5.07;;;;;;;;;;5051227;28;20060;-61
2023/03/31 01:30:27;;;;;;;25.30;4.57;;;;;;;;;;5052003;28;20049;-61
2023/03/31 01:32:56;;;;;;;22.83;4.13;;;;;;;;;;5052597;28;20045;-61
2023/03/31 01:35:41;;;;;;;24.13;4.00;;;;;;;;;;5052641;28;20045;-62
2023/03/31 01:38:22;;;;;;;16.83;4.80;;;;;;;;;;5051439;28;20086;-61
2023/03/31 01:40:51;;;;;;;25.60;4.37;;;;;;;;;;5051989;28;20049;-61
2023/03/31 01:43:23;;;;;;;28.83;5.53;;;;;;;;;;5051836;28;20136;-61
2023/03/31 01:46:09;;;;;;;20.67;4.87;;;;;;;;;;5052045;28;20045;-61
2023/03/31 01:48:44;;;;;;;19.17;5.33;;;;;;;;;;5054555;28;20388;-61
2023/03/31 01:51:15;;;;;;;33.77;6.30;;;;;;;;;;5051982;28;20052;-61
2023/03/31 01:53:55;;;;;;;21.07;5.90;;;;;;;;;;5052296;28;20114;-61
2023/03/31 01:56:32;;;;;;;24.73;5.20;;;;;;;;;;5051270;28;20044;-61
2023/03/31 01:59:01;;;;;;;22.63;4.87;;;;;;;;;;5052363;28;20041;-62
2023/03/31 02:01:28;;;;;;;15.37;3.87;;;;;;;;;;5052711;28;20041;-61
2023/03/31 02:04:04;;;;;;;17.73;4.50;;;;;;;;;;5051995;28;20863;-60
2023/03/31 02:06:33;;;;;;;20.73;4.60;;;;;;;;;;5051549;28;20052;-60
2023/03/31 02:09:09;;;;;;;21.03;4.63;;;;;;;;;;5051987;28;20052;-60
2023/03/31 02:11:37;;;;;;;17.33;4.70;;;;;;;;;;5051424;28;20048;-60
2023/03/31 02:14:06;;;;;;;15.30;4.73;;;;;;;;;;5051037;28;20041;-61
2023/03/31 02:16:34;;;;;;;20.50;4.30;;;;;;;;;;5052005;28;20047;-60
2023/03/31 02:19:04;;;;;;;21.30;4.00;;;;;;;;;;5052078;28;20045;-63
2023/03/31 02:21:34;;;;;;;14.37;4.73;;;;;;;;;;5051979;28;20392;-60
2023/03/31 02:24:02;;;;;;;20.67;4.40;;;;;;;;;;5049756;28;20048;-60
2023/03/31 02:26:30;;;;;;;22.13;4.27;;;;;;;;;;5051358;28;20090;-60
2023/03/31 02:28:57;;;;;;;18.20;3.83;;;;;;;;;;5050569;28;20049;-60
2023/03/31 02:31:23;;;;;;;18.40;4.93;;;;;;;;;;5051187;28;20051;-60
2023/03/31 02:33:49;;;;;;;19.63;5.40;;;;;;;;;;5051014;28;20045;-60
2023/03/31 02:36:16;;;;;;;16.17;5.60;;;;;;;;;;5051237;28;20052;-60
2023/03/31 02:39:05;;;;;;;15.33;4.17;;;;;;;;;;5051320;28;20472;-60
2023/03/31 02:41:31;;;;;;;16.13;4.33;;;;;;;;;;5050220;28;20123;-61
2023/03/31 02:43:58;;;;;;;13.17;4.80;;;;;;;;;;5050325;28;20388;-61
2023/03/31 02:46:24;;;;;;;12.97;4.73;;;;;;;;;;5051112;28;20052;-61
2023/03/31 02:48:53;;;;;;;19.10;5.30;;;;;;;;;;5050630;28;20045;-61
2023/03/31 02:51:38;;;;;;;16.03;5.00;;;;;;;;;;5049460;28;20060;-61
2023/03/31 02:54:14;;;;;;;13.73;4.17;;;;;;;;;;5051311;28;20047;-60
2023/03/31 02:56:58;;;;;;;16.30;4.30;;;;;;;;;;5050760;28;20128;-60
2023/03/31 02:59:24;;;;;;;17.73;4.73;;;;;;;;;;5050941;28;20557;-60
2023/03/31 03:02:02;;;;;;;12.93;4.37;;;;;;;;;;5051115;28;20499;-60
2023/03/31 03:04:54;;;;;;;17.37;6.73;;;;;;;;;;5050799;28;20045;-60
2023/03/31 03:07:29;;;;;;;16.37;4.70;;;;;;;;;;5041583;28;20059;-60
2023/03/31 03:10:04;;;;;;;14.60;5.40;;;;;;;;;;5049888;28;20568;-60
2023/03/31 03:12:37;;;;;;;13.23;6.53;;;;;;;;;;5050799;28;20099;-60
2023/03/31 03:15:03;;;;;;;;;;;;;;;;;;5051201;28;20711;-60
2023/03/31 03:17:38;;;;;;;21.37;6.23;;;;;;;;;;5050420;28;19920;-61
2023/03/31 03:20:07;;;;;;;24.33;7.40;;;;;;;;;;5050872;28;20052;-61
2023/03/31 03:22:33;;;;;;;23.00;8.27;;;;;;;;;;5049598;28;20103;-63
2023/03/31 03:24:59;;;;;;;17.97;7.30;;;;;;;;;;5049677;28;20124;-63
2023/03/31 03:27:25;;;;;;;21.33;7.40;;;;;;;;;;5050530;28;20515;-63
2023/03/31 03:29:51;;;;;;;27.33;8.23;;;;;;;;;;5050685;28;20099;-62
2023/03/31 03:32:17;;;;;;;21.53;7.33;;;;;;;;;;5050403;28;20052;-63
2023/03/31 03:34:43;;;;;;;25.53;8.80;;;;;;;;;;5049749;28;20052;-62
2023/03/31 03:37:09;;;;;;;24.90;7.20;;;;;;;;;;5049496;28;20047;-64
2023/03/31 03:39:35;;;;;;;24.70;7.83;;;;;;;;;;5049799;28;20492;-63
2023/03/31 03:42:01;;;;;;;23.23;8.27;;;;;;;;;;5049894;28;20045;-63
2023/03/31 03:44:27;;;;;;;23.43;8.37;;;;;;;;;;5052285;28;20476;-63
2023/03/31 03:46:53;;;;;;;23.73;8.43;;;;;;;;;;5069175;28;20045;-64
2023/03/31 03:49:20;;;;;;;25.53;9.13;;;;;;;;;;5068566;28;20407;-63
2023/03/31 03:51:46;;;;;;;28.13;8.20;;;;;;;;;;5051235;28;20045;-63
2023/03/31 03:54:12;;;;;;;25.20;7.40;;;;;;;;;;5047746;28;20832;-64
2023/03/31 03:56:38;;;;;;;21.90;8.27;;;;;;;;;;5049900;28;20053;-64
2023/03/31 03:59:04;;;;;;;24.80;8.03;;;;;;;;;;5049531;28;20053;-64
2023/03/31 04:01:30;;;;;;;22.90;7.43;;;;;;;;;;5049887;28;20053;-63
2023/03/31 04:03:56;;;;;;;21.97;7.10;;;;;;;;;;5047469;28;20061;-64
2023/03/31 04:06:23;;;;;;;24.70;7.63;;;;;;;;;;5051264;28;20444;-63
2023/03/31 04:08:49;;;;;;;17.17;6.63;;;;;;;;;;5049004;28;20133;-63
2023/03/31 04:11:16;;;;;;;21.00;7.57;;;;;;;;;;5049690;28;20076;-64
2023/03/31 04:13:43;;;;;;;24.23;7.33;;;;;;;;;;5049759;28;20041;-64
2023/03/31 04:16:09;;;;;;;19.50;6.37;;;;;;;;;;5051377;28;20434;-64
2023/03/31 04:18:45;;;;;;;20.43;6.07;;;;;;;;;;5049902;28;20049;-64
2023/03/31 04:21:14;;;;;;;18.63;6.63;;;;;;;;;;5049582;28;20071;-64
2023/03/31 04:23:46;;;;;;;20.73;6.50;;;;;;;;;;5049314;28;20045;-64
2023/03/31 04:26:13;;;;;;;19.03;6.07;;;;;;;;;;5050576;28;20099;-64
2023/03/31 04:28:41;;;;;;;16.47;6.17;;;;;;;;;;5048654;28;20355;-63
2023/03/31 04:31:08;;;;;;;22.90;6.50;;;;;;;;;;5047654;28;20120;-63
2023/03/31 04:33:37;;;;;;;22.30;6.60;;;;;;;;;;5048925;28;20044;-63
2023/03/31 04:36:19;;;;;;;29.17;6.33;;;;;;;;;;5048932;28;20086;-64
2023/03/31 04:38:46;;;;;;;24.77;6.77;;;;;;;;;;5049224;28;20045;-64
2023/03/31 04:41:15;;;;;;;24.13;7.17;;;;;;;;;;5049322;28;20052;-64
2023/03/31 04:43:41;;;;;;;19.40;5.80;;;;;;;;;;5048773;28;20051;-64
2023/03/31 04:46:07;;;;;;;20.70;6.77;;;;;;;;;;5048518;28;20498;-64
2023/03/31 04:48:33;;;;;;;30.40;6.77;;;;;;;;;;5047453;28;20067;-64
2023/03/31 04:50:59;;;;;;;22.63;6.90;;;;;;;;;;5047536;28;20045;-64
2023/03/31 04:53:25;;;;;;;22.37;7.23;;;;;;;;;;5048818;28;20053;-64
2023/03/31 04:55:51;;;;;;;28.23;7.73;;;;;;;;;;5049679;28;20048;-64
2023/03/31 04:58:17;;;;;;;21.67;7.97;;;;;;;;;;5048010;28;20041;-64
2023/03/31 05:00:44;;;;;;;14.47;6.33;;;;;;;;;;5048902;28;20064;-64
2023/03/31 05:03:10;;;;;;;18.77;7.20;;;;;;;;;;5048850;28;20041;-64
2023/03/31 05:05:36;;;;;;;21.80;8.00;;;;;;;;;;5051790;28;20047;-64
2023/03/31 05:08:02;;;;;;;23.67;7.97;;;;;;;;;;5048115;28;20049;-65
2023/03/31 05:10:29;;;;;;;24.83;8.87;;;;;;;;;;5048896;28;20045;-65
2023/03/31 05:12:55;;;;;;;16.90;7.60;;;;;;;;;;5046673;28;20069;-65
2023/03/31 05:15:21;;;;;;;24.10;7.70;;;;;;;;;;5050739;28;20401;-65
2023/03/31 05:17:48;;;;;;;17.33;6.97;;;;;;;;;;5048815;28;20414;-64
2023/03/31 05:20:14;;;;;;;25.43;7.40;;;;;;;;;;5048285;28;20503;-65
2023/03/31 05:22:40;;;;;;;20.97;7.70;;;;;;;;;;5048160;28;20095;-64
2023/03/31 05:25:07;;;;;;;25.27;8.47;;;;;;;;;;5049043;28;20041;-65
2023/03/31 05:27:34;;;;;;;20.87;9.30;;;;;;;;;;5048639;28;20191;-64
2023/03/31 05:30:00;;;;;;;16.23;7.23;;;;;;;;;;5046418;28;20053;-65
2023/03/31 05:32:26;;;;;;;19.20;7.20;;;;;;;;;;5048651;28;20052;-65
2023/03/31 05:34:55;;;;;;;19.47;7.33;;;;;;;;;;5048070;28;20052;-65
2023/03/31 05:37:23;;;;;;;25.40;8.60;;;;;;;;;;5045221;28;20063;-64
2023/03/31 05:39:49;;;;;;;23.77;8.23;;;;;;;;;;5063087;28;20045;-65
2023/03/31 05:42:15;;;;;;;24.53;8.57;;;;;;;;;;5047625;28;20103;-65
2023/03/31 05:44:41;;;;;;;19.00;8.40;;;;;;;;;;5048319;28;20064;-65
2023/03/31 05:47:07;;;;;;;24.23;9.57;;;;;;;;;;5049124;28;20380;-64
2023/03/31 05:49:33;;;;;;;20.70;8.00;;;;;;;;;;5051937;28;20037;-64
2023/03/31 05:51:59;;;;;;;24.30;8.77;;;;;;;;;;5068142;28;21060;-65
2023/03/31 05:54:26;;;;;;;24.30;8.70;;;;;;;;;;5051605;28;20049;-65
2023/03/31 05:56:52;;;;;;;23.47;8.77;;;;;;;;;;5048200;28;20088;-65
2023/03/31 05:59:18;;;;;;;19.80;7.70;;;;;;;;;;5048672;28;20068;-64
2023/03/31 06:01:44;;;;;;;18.40;7.40;;;;;;;;;;5048112;28;20037;-65
2023/03/31 06:04:10;;;;;;;20.40;7.83;;;;;;;;;;5047477;28;20403;-65
2023/03/31 06:06:36;;;;;;;23.57;7.43;;;;;;;;;;5044588;28;20053;-65
2023/03/31 06:09:03;;;;;;;25.20;7.37;;;;;;;;;;5042747;28;20045;-65
2023/03/31 06:11:29;;;;;;;24.50;7.70;;;;;;;;;;5037422;28;20041;-64
2023/03/31 06:13:55;;;;;;;20.57;7.13;;;;;;;;;;5038640;28;20503;-65
2023/03/31 06:16:21;;;;;;;18.57;7.80;;;;;;;;;;5041565;28;20033;-65
2023/03/31 06:18:47;;;;;;;21.03;6.00;;;;;;;;;;5038837;28;20102;-65
2023/03/31 06:21:18;;;;;;;26.83;7.67;;;;;;;;;;5045309;28;20180;-64
2023/03/31 06:23:44;;;;;;;18.33;6.07;;;;;;;;;;5043994;28;20037;-65
2023/03/31 06:26:12;;;;;;;24.83;6.00;;;;;;;;;;5041683;28;20057;-65
2023/03/31 06:28:38;;;;;;;30.10;7.47;;;;;;;;;;5042017;28;20065;-65
2023/03/31 06:31:05;;;;;;;18.67;6.70;;;;;;;;;;5043861;28;20060;-65
2023/03/31 06:33:31;;;;;;;22.17;6.43;;;;;;;;;;5042627;28;20048;-64
2023/03/31 06:36:00;;;;;;;21.10;7.20;;;;;;;;;;5043942;28;20514;-65
2023/03/31 06:38:26;;;;;;;23.23;6.07;;;;;;;;;;5042243;28;20041;-65
2023/03/31 06:40:52;;;;;;;24.83;7.03;;;;;;;;;;5043917;28;20049;-65
2023/03/31 06:43:19;;;;;;;24.97;7.70;;;;;;;;;;5046035;28;20041;-65
2023/03/31 06:45:45;;;;;;;17.27;5.97;;;;;;;;;;5041512;28;20045;-65
2023/03/31 06:48:11;;;;;;;19.07;6.23;;;;;;;;;;5043681;28;20081;-65
2023/03/31 06:50:38;;;;;;;25.37;6.87;;;;;;;;;;5039924;28;20044;-65
2023/03/31 06:53:04;;;;;;;20.07;5.63;;;;;;;;;;5042831;28;20041;-65
2023/03/31 06:55:32;;;;;;;20.73;6.10;;;;;;;;;;5052697;28;20495;-65
2023/03/31 06:57:58;;;;;;;16.73;5.27;;;;;;;;;;5050030;28;20048;-65
2023/03/31 07:00:25;;;;;;;16.17;5.37;;;;;;;;;;5050275;28;20111;-65
2023/03/31 07:02:52;;;;;;;16.87;5.10;;;;;;;;;;5049098;28;20053;-65
2023/03/31 07:05:18;;;;;;;24.00;6.77;;;;;;;;;;5051068;28;20056;-65
2023/03/31 07:07:45;;;;;;;24.87;6.80;;;;;;;;;;5051233;28;20106;-65
2023/03/31 07:10:11;;;;;;;17.90;6.20;;;;;;;;;;5049967;28;20049;-64
2023/03/31 07:12:37;;;;;;;20.87;6.63;;;;;;;;;;5051317;28;20045;-64
2023/03/31 07:15:03;;;;;;;16.90;6.53;;;;;;;;;;5049627;28;20041;-65
2023/03/31 07:17:29;;;;;;;18.57;6.30;;;;;;;;;;5050672;28;20102;-65
2023/03/31 07:19:55;;;;;;;22.77;7.97;;;;;;;;;;5049294;28;20041;-65
2023/03/31 07:22:21;;;;;;;21.17;7.73;;;;;;;;;;5045920;28;20573;-65
2023/03/31 07:24:47;;;;;;;22.70;7.17;;;;;;;;;;5038769;28;20103;-64
2023/03/31 07:27:13;;;;;;;24.60;8.07;;;;;;;;;;5056042;28;20053;-65
2023/03/31 07:29:39;;;;;;;28.00;8.60;;;;;;;;;;5041285;28;20106;-65
2023/03/31 07:32:05;;;;;;;18.53;7.50;;;;;;;;;;5043402;28;20080;-63
2023/03/31 07:34:31;;;;;;;15.83;5.93;;;;;;;;;;5043146;28;20100;-65
2023/03/31 07:36:58;;;;;;;14.50;6.70;;;;;;;;;;5041386;28;20511;-65
2023/03/31 07:39:24;;;;;;;19.90;6.10;;;;;;;;;;5040931;28;20072;-65
2023/03/31 07:41:50;;;;;;;18.43;5.60;;;;;;;;;;5043626;28;20045;-64
2023/03/31 07:44:17;;;;;;;17.00;5.83;;;;;;;;;;5038432;28;20045;-65
2023/03/31 07:46:43;;;;;;;16.40;5.17;;;;;;;;;;5042867;28;20128;-65
2023/03/31 07:49:14;;;;;;;9.33;4.50;;;;;;;;;;5038077;28;20079;-64
2023/03/31 07:51:41;;;;;;;18.70;5.10;;;;;;;;;;5040671;28;20060;-64
2023/03/31 07:54:07;;;;;;;18.90;5.53;;;;;;;;;;5053060;28;20051;-64
2023/03/31 07:56:33;;;;;;;18.23;5.03;;;;;;;;;;5039072;28;20144;-65
2023/03/31 07:58:59;;;;;;;22.50;6.30;;;;;;;;;;5027736;28;20147;-64
2023/03/31 08:01:28;;;;;;;17.77;4.70;;;;;;;;;;5044631;28;20052;-65
2023/03/31 08:03:54;;;;;;;24.43;5.23;;;;;;;;;;5042458;28;20091;-64
2023/03/31 08:06:22;;;;;;;16.60;4.53;;;;;;;;;;5040041;28;20049;-64
2023/03/31 08:08:49;;;;;;;12.80;4.30;;;;;;;;;;5036333;28;20045;-63
2023/03/31 08:11:15;;;;;;;12.90;4.57;;;;;;;;;;5033593;28;20133;-64
2023/03/31 08:13:41;;;;;;;16.80;4.97;;;;;;;;;;5038253;28;20140;-64
2023/03/31 08:16:07;;;;;;;14.40;4.50;;;;;;;;;;5043328;28;20048;-63
2023/03/31 08:18:33;;;;;;;14.73;4.80;;;;;;;;;;5041257;28;20490;-64
2023/03/31 08:20:59;;;;;;;14.57;4.30;;;;;;;;;;5035786;28;20840;-63
2023/03/31 08:23:25;;;;;;;8.77;3.70;;;;;;;;;;5033311;28;20081;-64
2023/03/31 08:25:51;;;;;;;16.80;4.80;;;;;;;;;;5033474;28;20056;-64
2023/03/31 08:28:17;;;;;;;19.67;4.33;;;;;;;;;;5039277;28;20195;-64
2023/03/31 08:30:43;;;;;;;12.00;3.80;;;;;;;;;;5047647;28;20061;-64
2023/03/31 08:33:13;;;;;;;12.70;4.20;;;;;;;;;;5045357;28;20055;-62
2023/03/31 08:35:39;;;;;;;12.80;3.90;;;;;;;;;;5040221;28;20053;-64
2023/03/31 08:38:05;;;;;;;20.70;4.80;;;;;;;;;;5038441;28;20036;-64
2023/03/31 08:40:32;;;;;;;15.10;3.73;;;;;;;;;;5036459;28;20171;-65
2023/03/31 08:43:02;;;;;;;15.17;3.90;;;;;;;;;;5032418;28;20041;-64
2023/03/31 08:45:31;;;;;;;12.80;3.33;;;;;;;;;;5034354;28;20120;-64
2023/03/31 08:47:58;;;;;;;8.93;3.10;;;;;;;;;;5037910;28;20488;-64
2023/03/31 08:50:27;;;;;;;11.17;4.10;;;;;;;;;;5034387;28;20518;-63
2023/03/31 08:53:02;;;;;;;13.90;3.80;;;;;;;;;;5038447;28;20052;-64
2023/03/31 08:55:34;;;;;;;11.83;3.30;;;;;;;;;;5030717;28;20046;-64
2023/03/31 08:58:13;;;;;;;11.70;3.20;;;;;;;;;;5027797;28;20050;-63
2023/03/31 09:00:48;;;;;;;14.70;4.37;;;;;;;;;;5028481;28;20057;-64
2023/03/31 09:03:28;;;;;;;17.50;4.50;;;;;;;;;;5028894;28;20139;-64
2023/03/31 09:05:58;;;;;;;9.53;3.87;;;;;;;;;;5028377;28;20045;-64
2023/03/31 09:08:35;;;;;;;14.87;3.50;;;;;;;;;;5028741;28;20049;-64
2023/03/31 09:11:13;;;;;;;15.80;3.60;;;;;;;;;;5028152;28;20053;-65
2023/03/31 09:13:58;;;;;;;14.23;3.60;;;;;;;;;;5035701;28;20083;-64
2023/03/31 09:16:26;;;;;;;13.47;3.87;;;;;;;;;;5038348;28;20081;-65
2023/03/31 09:18:54;;;;;;;12.40;3.80;;;;;;;;;;5045200;28;20406;-65
2023/03/31 09:21:22;;;;;;;13.20;3.70;;;;;;;;;;5045146;28;20502;-65
2023/03/31 09:23:56;;;;;;;16.47;3.60;;;;;;;;;;5044870;28;20642;-65
2023/03/31 09:26:40;;;;;;;14.57;3.70;;;;;;;;;;5045448;28;20095;-65
2023/03/31 09:29:07;;;;;;;;;;;;;;;;;;5039595;28;20049;-65
2023/03/31 09:31:34;;;;;;;9.03;3.00;;;;;;;;;;5041613;28;19921;-65
2023/03/31 09:34:01;;;;;;;12.37;3.53;;;;;;;;;;5041584;28;20051;-64
2023/03/31 09:36:27;;;;;;;12.77;3.60;;;;;;;;;;5038658;28;20076;-65
2023/03/31 09:38:54;;;;;;;10.27;3.30;;;;;;;;;;5038747;28;20188;-66
2023/03/31 09:41:21;;;;;;;8.17;3.17;;;;;;;;;;5037767;28;20068;-65
2023/03/31 09:43:48;;;;;;;16.83;4.27;;;;;;;;;;5035693;28;20038;-65
2023/03/31 09:46:17;;;;;;;15.57;3.90;;;;;;;;;;5041673;28;20053;-66
2023/03/31 09:48:49;;;;;;;12.20;3.67;;;;;;;;;;5041895;28;20046;-65
2023/03/31 09:51:18;;;;;;;11.17;3.73;;;;;;;;;;5041676;28;20072;-65
2023/03/31 09:53:53;;;;;;;9.87;3.83;;;;;;;;;;5039564;28;20071;-65
2023/03/31 09:56:47;;;;;;;9.60;3.20;;;;;;;;;;5041018;28;20102;-64
2023/03/31 09:59:21;;;;;;;10.73;3.30;;;;;;;;;;5041055;28;20048;-63
2023/03/31 10:01:47;;;;;;;;;;;;;;;;;;5037063;28;20126;-64
2023/03/31 10:04:18;;;;;;;7.57;2.50;;;;;;;;;;5043516;28;20020;-64
2023/03/31 10:06:44;;;;;;;8.33;2.63;;;;;;;;;;5043678;28;20045;-63
2023/03/31 10:09:11;;;;;;;10.13;2.77;;;;;;;;;;5042814;28;20051;-64
2023/03/31 10:11:37;;;;;;;10.40;2.63;;;;;;;;;;5042307;28;20042;-64
2023/03/31 10:14:12;;;;;;;6.70;2.43;;;;;;;;;;5041628;28;20467;-64
2023/03/31 10:16:46;;;;;;;7.60;3.13;;;;;;;;;;5039981;28;20095;-64
2023/03/31 10:19:18;;;;;;;13.27;2.73;;;;;;;;;;5040950;28;20124;-63
2023/03/31 10:21:45;;;;;;;9.40;2.50;;;;;;;;;;5038971;28;20048;-63
2023/03/31 10:24:11;;;;;;;5.50;2.23;;;;;;;;;;5040074;28;20049;-63
2023/03/31 10:26:37;;;;;;;7.70;2.30;;;;;;;;;;5040280;28;20045;-63
2023/03/31 10:29:10;;;;;;;9.67;2.70;;;;;;;;;;5037520;28;20154;-63
2023/03/31 10:31:36;;;;;;;13.77;3.00;;;;;;;;;;5039212;28;20056;-64
2023/03/31 10:34:14;;;;;;;11.73;2.90;;;;;;;;;;5038449;28;20042;-64
2023/03/31 10:36:45;;;;;;;11.53;2.73;;;;;;;;;;5042230;28;20558;-64
2023/03/31 10:39:15;;;;;;;11.13;2.80;;;;;;;;;;5039056;28;20056;-64
2023/03/31 10:41:41;;;;;;;7.37;3.00;;;;;;;;;;5032496;28;20049;-64
2023/03/31 10:44:27;;;;;;;12.80;2.97;;;;;;;;;;5037122;28;20048;-64
2023/03/31 10:46:53;;;;;;;11.63;3.17;;;;;;;;;;5042139;28;20060;-64
2023/03/31 10:49:22;;;;;;;8.10;3.70;;;;;;;;;;5039670;28;20041;-64
2023/03/31 10:51:49;;;;;;;9.47;3.63;;;;;;;;;;5038920;28;20049;-64
2023/03/31 10:54:15;;;;;;;11.50;4.33;;;;;;;;;;5038129;28;20120;-64
2023/03/31 10:56:44;;;;;;;10.27;3.70;;;;;;;;;;5037537;28;20111;-64
2023/03/31 10:59:11;;;;;;;11.17;4.33;;;;;;;;;;5039179;28;20044;-64
2023/03/31 11:01:49;;;;;;;5.80;3.27;;;;;;;;;;5041049;28;20102;-64
2023/03/31 11:04:18;;;;;;;14.67;3.93;;;;;;;;;;5038378;28;20049;-64
2023/03/31 11:06:50;;;;;;;14.93;4.17;;;;;;;;;;5039609;28;20142;-64
2023/03/31 11:09:28;;;;;;;9.20;3.30;;;;;;;;;;5041078;28;20392;-64
2023/03/31 11:12:02;;;;;;;9.47;3.47;;;;;;;;;;5038453;28;20132;-64
2023/03/31 11:14:57;;;;;;;14.37;3.53;;;;;;;;;;5054256;28;20055;-64
2023/03/31 11:17:33;;;;;;;10.37;3.37;;;;;;;;;;5033006;28;20756;-64
2023/03/31 11:20:09;;;;;;;8.60;3.33;;;;;;;;;;5050483;28;20045;-64
2023/03/31 11:22:54;;;;;;;10.30;4.03;;;;;;;;;;5033409;28;20186;-64
2023/03/31 11:25:23;;;;;;;15.80;3.97;;;;;;;;;;5046366;28;20053;-63
2023/03/31 11:28:16;;;;;;;16.30;4.80;;;;;;;;;;5049045;28;20110;-64
2023/03/31 11:30:48;;;;;;;11.48;4.18;;;;;;;;;;5045489;28;20052;-64
2023/03/31 11:33:20;;;;;;;14.97;4.30;;;;;;;;;;5054654;28;20055;-63
2023/03/31 11:36:03;;;;;;;19.03;4.33;;;;;;;;;;5036639;28;20041;-63
2023/03/31 11:38:39;;;;;;;10.18;3.63;;;;;;;;;;5044072;28;20037;-62
2023/03/31 11:41:07;;;;;;;20.67;5.10;;;;;;;;;;5040824;28;20136;-63
2023/03/31 11:43:35;;;;;;;17.57;4.30;;;;;;;;;;5039806;28;20053;-62
2023/03/31 11:46:08;;;;;;;18.40;5.17;;;;;;;;;;5046287;28;20069;-62
2023/03/31 11:48:46;;;;;;;14.77;4.35;;;;;;;;;;5043689;28;20091;-62
2023/03/31 11:51:32;;;;;;;18.90;5.10;;;;;;;;;;5041350;28;20073;-62
2023/03/31 11:53:59;;;;;;;18.67;4.27;;;;;;;;;;5039609;28;20414;-63
2023/03/31 11:56:28;;;;;;;16.37;4.60;;;;;;;;;;5043459;28;20387;-63
2023/03/31 11:58:57;;;;;;;17.30;5.00;;;;;;;;;;5038326;28;20052;-63
2023/03/31 12:01:25;;;;;;;16.03;4.63;;;;;;;;;;5037762;28;20099;-63
2023/03/31 12:03:51;;;;;;;19.17;3.90;;;;;;;;;;5038971;28;20053;-63
2023/03/31 12:06:19;;;;;;;13.17;3.60;;;;;;;;;;5036982;28;20049;-63
2023/03/31 12:09:06;;;;;;;10.60;3.03;;;;;;;;;;5038582;28;20049;-63
2023/03/31 12:11:44;;;;;;;17.17;4.10;;;;;;;;;;5038020;28;20045;-63
2023/03/31 12:14:26;;;;;;;13.83;3.80;;;;;;;;;;5044759;28;20120;-63
2023/03/31 12:16:54;;;;;;;22.43;5.23;;;;;;;;;;5045644;28;20051;-63
2023/03/31 12:19:34;;;;;;;15.23;4.03;;;;;;;;;;5039505;28;20045;-62
2023/03/31 12:22:11;;;;;;;18.30;4.23;;;;;;;;;;5038759;28;20044;-62
2023/03/31 12:24:37;;;;;;;15.33;3.73;;;;;;;;;;5046791;28;20041;-63
2023/03/31 12:27:11;;;;;;;18.03;5.07;;;;;;;;;;5042053;28;20040;-63
2023/03/31 12:29:46;;;;;;;21.00;4.73;;;;;;;;;;5046315;28;20041;-64
2023/03/31 12:32:23;;;;;;;21.13;4.13;;;;;;;;;;5036246;28;20052;-62
2023/03/31 12:34:59;;;;;;;15.80;3.60;;;;;;;;;;5041822;28;20091;-63
2023/03/31 12:37:30;;;;;;;20.50;4.13;;;;;;;;;;5034489;28;20050;-63
2023/03/31 12:40:22;;;;;;;15.07;3.23;;;;;;;;;;5036992;28;20052;-62
2023/03/31 12:43:07;;;;;;;12.73;4.13;;;;;;;;;;5036508;28;20053;-63
2023/03/31 12:45:38;;;;;;;14.23;3.80;;;;;;;;;;5037606;28;20168;-63
2023/03/31 12:48:15;;;;;;;14.40;3.67;;;;;;;;;;5034909;28;20052;-63
2023/03/31 12:50:50;;;;;;;21.23;3.83;;;;;;;;;;5036695;28;20488;-63
2023/03/31 12:53:16;;;;;;;19.70;4.80;;;;;;;;;;5034218;28;20048;-63
2023/03/31 12:55:46;;;;;;;16.20;3.53;;;;;;;;;;5036136;28;20052;-63
2023/03/31 12:58:35;;;;;;;22.53;4.17;;;;;;;;;;5033878;28;20061;-63
2023/03/31 13:01:03;;;;;;;12.83;3.43;;;;;;;;;;5034806;28;20041;-63
2023/03/31 13:03:50;;;;;;;15.33;3.60;;;;;;;;;;5034473;28;20418;-64
2023/03/31 13:06:25;;;;;;;16.53;3.40;;;;;;;;;;5044241;28;20075;-64
2023/03/31 13:09:14;;;;;;;19.10;3.73;;;;;;;;;;5040992;28;20041;-64
2023/03/31 13:11:43;;;;;;;21.83;3.93;;;;;;;;;;5037605;28;20042;-63
2023/03/31 13:14:18;;;;;;;16.40;3.80;;;;;;;;;;5041973;28;20049;-63
2023/03/31 13:16:45;;;;;;;16.83;3.17;;;;;;;;;;5031691;28;20085;-64
2023/03/31 13:19:12;;;;;;;17.67;3.80;;;;;;;;;;5028642;28;20033;-63
2023/03/31 13:21:58;;;;;;;15.87;3.40;;;;;;;;;;5032829;28;20057;-64
2023/03/31 13:24:25;;;;;;;39.23;4.73;;;;;;;;;;5033105;28;20052;-66
2023/03/31 13:26:52;;;;;;;22.27;4.07;;;;;;;;;;5031872;28;20057;-65
2023/03/31 13:29:20;;;;;;;11.13;3.07;;;;;;;;;;5033070;28;20146;-64
2023/03/31 13:32:01;;;;;;;16.73;4.17;;;;;;;;;;5032716;28;20048;-63
2023/03/31 13:34:41;;;;;;;17.63;3.57;;;;;;;;;;5031999;28;20050;-63
2023/03/31 13:37:10;;;;;;;7.90;2.50;;;;;;;;;;5032312;28;20049;-63
2023/03/31 13:39:45;;;;;;;10.50;2.60;;;;;;;;;;5032241;28;20056;-64
2023/03/31 13:42:14;;;;;;;13.53;2.50;;;;;;;;;;5032298;28;20161;-63
2023/03/31 13:44:59;;;;;;;17.17;2.23;;;;;;;;;;5039553;28;20050;-63
2023/03/31 13:47:43;;;;;;;13.40;2.67;;;;;;;;;;5031402;28;20543;-63
2023/03/31 13:50:28;;;;;;;8.97;1.87;;;;;;;;;;5032042;28;20053;-63
2023/03/31 13:53:01;;;;;;;7.17;2.03;;;;;;;;;;5030840;28;20588;-63
2023/03/31 13:55:45;;;;;;;11.38;2.13;;;;;;;;;;5032267;28;20061;-63
2023/03/31 13:58:34;;;;;;;7.23;1.90;;;;;;;;;;5032173;28;20132;-63
2023/03/31 14:01:03;;;;;;;9.03;1.97;;;;;;;;;;5031950;28;20132;-63
2023/03/31 14:03:48;;;;;;;11.33;1.80;;;;;;;;;;5032408;28;20053;-63
2023/03/31 14:06:20;;;;;;;11.00;2.40;;;;;;;;;;5032281;28;20052;-63
2023/03/31 14:08:55;;;;;;;14.83;4.17;;;;;;;;;;5031653;28;20053;-63
2023/03/31 14:11:25;;;;;;;12.17;2.47;;;;;;;;;;5031980;28;20419;-63
2023/03/31 14:14:00;;;;;;;12.30;2.10;;;;;;;;;;5033737;28;20516;-63
2023/03/31 14:16:27;;;;;;;11.60;3.40;;;;;;;;;;5041267;28;20091;-64
2023/03/31 14:18:58;;;;;;;13.60;2.80;;;;;;;;;;5038577;28;20502;-64
2023/03/31 14:21:28;;;;;;;13.97;2.93;;;;;;;;;;5035964;28;20427;-64
2023/03/31 14:24:10;;;;;;;13.70;3.30;;;;;;;;;;5039562;28;20037;-64
2023/03/31 14:26:47;;;;;;;18.53;3.77;;;;;;;;;;5043776;28;20059;-64
2023/03/31 14:29:13;;;;;;;20.37;4.20;;;;;;;;;;5041855;28;20123;-64
2023/03/31 14:31:51;;;;;;;22.27;3.43;;;;;;;;;;5038245;28;20049;-64
2023/03/31 14:34:29;;;;;;;21.60;4.57;;;;;;;;;;5040699;28;20049;-64
2023/03/31 14:36:59;;;;;;;18.97;3.37;;;;;;;;;;5036269;28;20642;-64
2023/03/31 14:39:28;;;;;;;14.93;3.40;;;;;;;;;;5031665;28;20526;-64
2023/03/31 14:41:55;;;;;;;18.00;3.07;;;;;;;;;;5032386;28;20045;-64
2023/03/31 14:44:22;;;;;;;19.83;3.80;;;;;;;;;;5034177;28;20516;-64
2023/03/31 14:46:48;;;;;;;20.17;4.60;;;;;;;;;;5034287;28;20077;-63
2023/03/31 14:49:15;;;;;;;18.83;4.83;;;;;;;;;;5041831;28;20083;-63
2023/03/31 14:51:43;;;;;;;13.87;3.03;;;;;;;;;;5043952;28;20082;-63